Time;durP1;ratioP1;P1;durP2;ratioP2;P2;SDS_P1;SDS_P2;PMS_P1;PMS_P2;Temp;Humidity;BMP_temperature;BMP_pressure;BME280_temperature;BME280_humidity;BME280_pressure;Samples;Min_cycle;Max_cycle;Signal;HPM_P1;HPM_P2
2023/08/11 00:01:23;;;;;;;3.90;2.50;;;15.90;99.90;;;;;;5071221;28;20295;-66
2023/08/11 00:03:48;;;;;;;3.10;2.80;;;15.90;99.90;;;;;;5071102;28;20193;-65
2023/08/11 00:06:16;;;;;;;8.10;2.60;;;15.80;99.90;;;;;;5052807;28;20294;-65
2023/08/11 00:08:42;;;;;;;5.33;3.07;;;15.90;99.90;;;;;;5070871;28;20200;-65
2023/08/11 00:11:08;;;;;;;3.20;2.90;;;15.80;99.90;;;;;;5070561;28;20485;-66
2023/08/11 00:13:34;;;;;;;3.03;2.73;;;15.80;99.90;;;;;;5070473;28;20977;-66
2023/08/11 00:16:03;;;;;;;3.90;2.13;;;15.80;99.90;;;;;;5070239;28;20262;-66
2023/08/11 00:18:29;;;;;;;3.60;3.00;;;15.70;99.90;;;;;;5070275;28;20423;-66
2023/08/11 00:20:55;;;;;;;2.70;2.50;;;15.70;99.90;;;;;;5069970;28;20444;-66
2023/08/11 00:23:21;;;;;;;3.10;2.80;;;15.70;99.90;;;;;;5069926;28;20450;-66
2023/08/11 00:25:46;;;;;;;3.20;2.60;;;15.50;99.90;;;;;;5070195;28;20181;-66
2023/08/11 00:28:12;;;;;;;3.13;2.40;;;15.50;99.90;;;;;;5070094;28;20212;-66
2023/08/11 00:30:37;;;;;;;3.93;2.90;;;15.50;99.90;;;;;;5069762;28;20201;-66
2023/08/11 00:33:03;;;;;;;2.73;2.50;;;15.50;99.90;;;;;;5069721;28;20222;-66
2023/08/11 00:35:29;;;;;;;5.53;3.20;;;15.50;99.90;;;;;;5051922;28;20260;-66
2023/08/11 00:37:55;;;;;;;2.63;2.30;;;15.60;99.90;;;;;;5069628;28;20518;-66
2023/08/11 00:40:22;;;;;;;3.30;2.13;;;15.60;99.90;;;;;;5069788;28;20518;-66
2023/08/11 00:42:49;;;;;;;4.27;2.50;;;15.60;99.90;;;;;;5069635;28;20203;-65
2023/08/11 00:45:15;;;;;;;4.97;3.13;;;15.70;99.90;;;;;;5070005;28;20481;-65
2023/08/11 00:47:41;;;;;;;3.60;2.80;;;15.80;99.90;;;;;;5070160;28;20429;-66
2023/08/11 00:50:08;;;;;;;4.23;2.83;;;15.70;99.90;;;;;;5070273;28;20182;-66
2023/08/11 00:52:34;;;;;;;3.90;2.70;;;15.70;99.90;;;;;;5069983;28;20565;-66
2023/08/11 00:55:00;;;;;;;5.13;2.67;;;15.60;99.90;;;;;;5070121;28;20499;-66
2023/08/11 00:57:26;;;;;;;3.87;2.80;;;15.60;99.90;;;;;;5070018;28;20425;-66
2023/08/11 00:59:52;;;;;;;7.30;3.17;;;15.60;99.90;;;;;;5069899;28;20423;-65
2023/08/11 01:02:18;;;;;;;3.90;2.80;;;15.60;99.90;;;;;;5069915;28;20200;-66
2023/08/11 01:04:43;;;;;;;6.90;2.97;;;15.50;99.90;;;;;;5069810;28;20470;-66
2023/08/11 01:07:18;;;;;;;3.30;2.77;;;15.50;99.90;;;;;;5069925;28;20189;-66
2023/08/11 01:10:12;;;;;;;3.27;2.63;;;15.40;99.90;;;;;;5051762;28;20187;-66
2023/08/11 01:12:47;;;;;;;4.30;3.17;;;15.40;99.90;;;;;;5069743;28;20461;-66
2023/08/11 01:15:38;;;;;;;5.20;2.60;;;15.50;99.90;;;;;;5069617;28;20406;-66
2023/08/11 01:18:05;;;;;;;4.07;3.30;;;15.40;99.90;;;;;;5069614;28;20415;-66
2023/08/11 01:20:32;;;;;;;5.20;3.20;;;15.40;99.90;;;;;;5069530;28;20414;-67
2023/08/11 01:22:59;;;;;;;2.70;2.50;;;15.40;99.90;;;;;;5069489;28;20940;-66
2023/08/11 01:25:26;;;;;;;3.20;2.60;;;15.40;99.90;;;;;;5069604;28;20436;-66
2023/08/11 01:27:56;;;;;;;5.30;3.10;;;15.30;99.90;;;;;;5069176;28;20443;-65
2023/08/11 01:30:23;;;;;;;3.80;3.37;;;15.30;99.90;;;;;;5069277;28;20449;-66
2023/08/11 01:32:50;;;;;;;3.60;2.30;;;15.30;99.90;;;;;;5069375;28;20511;-66
2023/08/11 01:35:15;;;;;;;4.43;2.93;;;15.30;99.90;;;;;;5069259;28;20977;-66
2023/08/11 01:37:43;;;;;;;2.90;2.70;;;15.40;99.90;;;;;;5069381;28;20430;-66
2023/08/11 01:40:13;;;;;;;4.53;3.30;;;15.30;99.90;;;;;;5069192;28;20178;-67
2023/08/11 01:42:40;;;;;;;7.03;3.13;;;15.40;99.90;;;;;;5051820;28;20434;-66
2023/08/11 01:45:11;;;;;;;4.97;3.33;;;15.20;99.90;;;;;;5068973;28;20533;-66
2023/08/11 01:47:39;;;;;;;5.57;3.23;;;15.20;99.90;;;;;;5068952;28;20965;-66
2023/08/11 01:50:06;;;;;;;9.47;3.20;;;15.10;99.90;;;;;;5069146;28;20422;-66
2023/08/11 01:52:35;;;;;;;2.93;2.57;;;15.10;99.90;;;;;;5068762;28;20470;-66
2023/08/11 01:55:01;;;;;;;3.57;3.00;;;15.00;99.90;;;;;;5068949;28;20417;-66
2023/08/11 01:57:27;;;;;;;4.30;2.97;;;15.00;99.90;;;;;;5068792;28;20913;-66
2023/08/11 01:59:53;;;;;;;6.73;2.50;;;15.00;99.90;;;;;;5050440;28;20189;-66
2023/08/11 02:02:19;;;;;;;3.80;2.80;;;15.00;99.90;;;;;;5068377;28;20443;-67
2023/08/11 02:04:45;;;;;;;4.87;3.17;;;14.90;99.90;;;;;;5068497;28;20191;-66
2023/08/11 02:07:10;;;;;;;3.27;2.97;;;14.90;99.90;;;;;;5068464;28;20181;-66
2023/08/11 02:09:36;;;;;;;4.13;3.20;;;14.90;99.90;;;;;;5068379;28;20445;-66
2023/08/11 02:12:02;;;;;;;3.90;3.50;;;14.90;99.90;;;;;;5068669;28;20290;-66
2023/08/11 02:14:28;;;;;;;3.40;3.10;;;14.80;99.90;;;;;;5068701;28;20239;-66
2023/08/11 02:16:53;;;;;;;3.30;3.00;;;14.80;99.90;;;;;;5068649;28;20411;-66
2023/08/11 02:19:19;;;;;;;3.93;3.07;;;14.70;99.90;;;;;;5068552;28;20190;-66
2023/08/11 02:21:44;;;;;;;3.90;3.07;;;14.70;99.90;;;;;;5068358;28;20314;-66
2023/08/11 02:24:10;;;;;;;7.17;3.27;;;14.70;99.90;;;;;;5068460;28;20187;-66
2023/08/11 02:26:36;;;;;;;4.70;3.70;;;14.70;99.90;;;;;;5068899;28;20182;-66
2023/08/11 02:29:03;;;;;;;8.87;3.20;;;14.70;99.90;;;;;;5068737;28;20225;-66
2023/08/11 02:31:31;;;;;;;3.53;3.20;;;14.70;99.90;;;;;;5068321;28;20311;-66
2023/08/11 02:33:56;;;;;;;6.43;3.10;;;14.70;99.90;;;;;;5068581;28;20452;-65
2023/08/11 02:36:23;;;;;;;3.80;3.30;;;14.60;99.90;;;;;;5068374;28;20426;-66
2023/08/11 02:38:50;;;;;;;4.63;2.90;;;14.60;99.90;;;;;;5068332;28;20180;-66
2023/08/11 02:41:16;;;;;;;5.50;3.50;;;14.50;99.90;;;;;;5072076;28;20475;-66
2023/08/11 02:43:42;;;;;;;4.20;3.23;;;14.50;99.90;;;;;;5072647;28;20896;-66
2023/08/11 02:46:07;;;;;;;4.97;3.00;;;14.40;99.90;;;;;;5072763;28;20263;-66
2023/08/11 02:48:38;;;;;;;2.70;2.40;;;14.50;99.90;;;;;;5072468;28;20244;-66
2023/08/11 02:51:04;;;;;;;3.77;3.20;;;14.50;99.90;;;;;;5072408;28;20293;-66
2023/08/11 02:53:30;;;;;;;3.10;2.70;;;14.50;99.90;;;;;;5072403;28;20461;-66
2023/08/11 02:55:55;;;;;;;5.57;3.47;;;14.50;99.90;;;;;;5072361;28;20206;-66
2023/08/11 02:58:21;;;;;;;4.43;3.93;;;14.50;99.90;;;;;;5054250;28;20179;-65
2023/08/11 03:00:48;;;;;;;5.27;3.97;;;14.50;99.90;;;;;;5072254;28;20182;-65
2023/08/11 03:03:14;;;;;;;4.73;3.50;;;14.50;99.90;;;;;;5053814;28;20362;-66
2023/08/11 03:05:43;;;;;;;6.40;3.77;;;14.50;99.90;;;;;;5071675;28;20561;-66
2023/08/11 03:08:08;;;;;;;9.70;4.43;;;14.50;99.90;;;;;;5071881;28;20219;-65
2023/08/11 03:10:34;;;;;;;4.10;3.07;;;14.50;99.90;;;;;;5072002;28;20454;-66
2023/08/11 03:13:00;;;;;;;4.50;3.40;;;14.50;99.90;;;;;;5071996;28;20282;-65
2023/08/11 03:15:26;;;;;;;4.03;3.63;;;14.50;99.90;;;;;;5054224;28;20237;-65
2023/08/11 03:17:54;;;;;;;3.50;3.20;;;14.60;99.90;;;;;;5071872;28;20725;-65
2023/08/11 03:20:20;;;;;;;3.67;3.27;;;14.20;99.90;;;;;;5071788;28;20176;-65
2023/08/11 03:22:46;;;;;;;5.10;3.00;;;14.10;99.90;;;;;;5071841;28;20434;-65
2023/08/11 03:25:12;;;;;;;5.07;3.80;;;14.20;99.90;;;;;;5071727;28;20422;-66
2023/08/11 03:27:42;;;;;;;8.93;3.80;;;14.20;99.90;;;;;;5071601;28;20468;-65
2023/08/11 03:30:10;;;;;;;6.10;3.50;;;14.20;99.90;;;;;;5071252;28;20199;-65
2023/08/11 03:32:37;;;;;;;4.53;3.20;;;14.30;99.90;;;;;;5070454;28;20469;-65
2023/08/11 03:35:07;;;;;;;4.50;3.60;;;14.30;99.90;;;;;;5070551;28;20410;-65
2023/08/11 03:37:34;;;;;;;4.67;3.73;;;14.20;99.90;;;;;;5070330;28;20410;-65
2023/08/11 03:40:00;;;;;;;3.27;2.97;;;14.20;99.90;;;;;;5070330;28;20528;-66
2023/08/11 03:42:26;;;;;;;4.03;3.63;;;14.20;99.90;;;;;;5070206;28;21012;-65
2023/08/11 03:44:51;;;;;;;8.77;3.67;;;14.20;99.90;;;;;;5070564;28;20538;-66
2023/08/11 03:47:19;;;;;;;4.23;3.40;;;14.20;99.90;;;;;;5070429;28;20268;-66
2023/08/11 03:49:45;;;;;;;3.73;3.43;;;14.20;99.90;;;;;;5069620;28;20966;-66
2023/08/11 03:52:12;;;;;;;4.27;3.40;;;14.20;99.90;;;;;;5069719;28;20568;-66
2023/08/11 03:54:38;;;;;;;3.80;3.43;;;14.10;99.90;;;;;;5069985;28;20171;-65
2023/08/11 03:57:04;;;;;;;3.80;3.50;;;14.10;99.90;;;;;;5069812;28;20908;-66
2023/08/11 03:59:30;;;;;;;3.77;3.47;;;14.10;99.90;;;;;;5069762;28;20521;-66
2023/08/11 04:01:55;;;;;;;6.30;3.60;;;14.10;99.90;;;;;;5069144;28;20199;-66
2023/08/11 04:04:21;;;;;;;7.13;4.50;;;14.10;99.90;;;;;;5051208;28;20461;-66
2023/08/11 04:06:47;;;;;;;4.10;3.63;;;14.00;99.90;;;;;;5069322;28;20187;-66
2023/08/11 04:09:12;;;;;;;5.03;4.27;;;14.00;99.90;;;;;;5069347;28;20183;-66
2023/08/11 04:11:38;;;;;;;3.57;3.27;;;14.00;99.90;;;;;;5069039;28;20267;-66
2023/08/11 04:14:06;;;;;;;5.63;3.43;;;14.00;99.90;;;;;;5069428;28;20185;-66
2023/08/11 04:16:32;;;;;;;5.70;3.17;;;14.00;99.90;;;;;;5069228;28;20633;-66
2023/08/11 04:18:58;;;;;;;4.93;3.73;;;14.00;99.90;;;;;;5069603;28;20444;-64
2023/08/11 04:21:24;;;;;;;4.43;4.00;;;14.10;99.90;;;;;;5069383;28;20461;-65
2023/08/11 04:23:49;;;;;;;4.73;3.70;;;14.00;99.90;;;;;;5051253;28;20606;-65
2023/08/11 04:26:15;;;;;;;5.17;4.00;;;14.10;99.90;;;;;;5069395;28;20171;-66
2023/08/11 04:28:43;;;;;;;4.23;3.70;;;14.10;99.90;;;;;;5069336;28;20640;-66
2023/08/11 04:31:09;;;;;;;10.60;4.20;;;14.00;99.90;;;;;;5014690;28;1077927;-65
2023/08/11 04:33:35;;;;;;;3.53;3.23;;;14.10;99.90;;;;;;5052510;28;20247;-66
2023/08/11 04:36:02;;;;;;;5.00;4.13;;;14.10;99.90;;;;;;5070020;28;20875;-66
2023/08/11 04:38:30;;;;;;;7.43;3.93;;;14.10;99.90;;;;;;5069649;28;20184;-66
2023/08/11 04:40:57;;;;;;;6.50;3.43;;;14.20;99.90;;;;;;5069943;28;20409;-66
2023/08/11 04:43:26;;;;;;;9.63;3.80;;;14.20;99.90;;;;;;5069879;28;20430;-65
2023/08/11 04:45:52;;;;;;;4.00;3.20;;;14.20;99.90;;;;;;5070086;28;20414;-66
2023/08/11 04:48:17;;;;;;;5.90;4.00;;;14.20;99.90;;;;;;5069701;28;20798;-66
2023/08/11 04:50:48;;;;;;;5.23;3.53;;;14.20;99.90;;;;;;5069822;28;20187;-66
2023/08/11 04:53:14;;;;;;;4.93;4.20;;;14.20;99.90;;;;;;5071068;28;20238;-68
2023/08/11 04:55:40;;;;;;;6.43;4.00;;;14.20;99.90;;;;;;5072987;28;20454;-66
2023/08/11 04:58:05;;;;;;;5.30;4.77;;;14.20;99.90;;;;;;5070028;28;20640;-66
2023/08/11 05:00:33;;;;;;;5.30;4.33;;;14.30;99.90;;;;;;5069809;28;20418;-66
2023/08/11 05:02:59;;;;;;;5.80;4.70;;;14.30;99.90;;;;;;5050993;28;20259;-65
2023/08/11 05:05:26;;;;;;;5.70;3.90;;;14.30;99.90;;;;;;5069086;28;20522;-64
2023/08/11 05:07:52;;;;;;;5.90;4.00;;;14.30;99.90;;;;;;5069620;28;20195;-66
2023/08/11 05:10:17;;;;;;;5.43;4.23;;;14.30;99.90;;;;;;5051425;28;20525;-66
2023/08/11 05:12:44;;;;;;;3.97;3.57;;;14.30;99.90;;;;;;5069651;28;20266;-65
2023/08/11 05:15:11;;;;;;;5.23;3.70;;;14.40;99.90;;;;;;5069701;28;20175;-66
2023/08/11 05:17:37;;;;;;;9.00;4.30;;;14.40;99.90;;;;;;5051350;28;20489;-66
2023/08/11 05:20:06;;;;;;;8.83;3.80;;;14.50;99.90;;;;;;5069471;28;20509;-66
2023/08/11 05:22:32;;;;;;;4.20;3.57;;;14.60;99.90;;;;;;5052001;28;20205;-66
2023/08/11 05:24:57;;;;;;;3.43;3.13;;;14.60;99.90;;;;;;5069526;28;20410;-65
2023/08/11 05:27:23;;;;;;;4.00;3.60;;;14.70;99.90;;;;;;5069532;28;20262;-66
2023/08/11 05:29:50;;;;;;;4.90;3.73;;;15.00;99.90;;;;;;5069303;28;20203;-66
2023/08/11 05:32:16;;;;;;;5.40;3.63;;;15.00;99.90;;;;;;5069248;28;20203;-66
2023/08/11 05:34:42;;;;;;;6.53;3.67;;;15.20;99.90;;;;;;5069209;28;20421;-65
2023/08/11 05:37:07;;;;;;;4.37;3.10;;;15.40;99.90;;;;;;5069295;28;20203;-66
2023/08/11 05:39:33;;;;;;;4.23;3.37;;;15.70;99.90;;;;;;5069446;28;20456;-66
2023/08/11 05:41:59;;;;;;;4.73;3.83;;;15.90;99.90;;;;;;5069730;28;20207;-65
2023/08/11 05:44:24;;;;;;;5.90;3.43;;;16.10;99.90;;;;;;5069438;28;20192;-65
2023/08/11 05:46:50;;;;;;;5.80;4.00;;;16.30;99.90;;;;;;5069398;28;20600;-65
2023/08/11 05:49:16;;;;;;;6.93;3.70;;;16.50;99.90;;;;;;5069330;28;20679;-65
2023/08/11 05:51:42;;;;;;;9.03;5.40;;;16.60;99.90;;;;;;5068872;28;20366;-64
2023/08/11 05:54:07;;;;;;;4.50;3.97;;;16.80;99.90;;;;;;5069231;28;20530;-65
2023/08/11 05:56:33;;;;;;;5.10;3.80;;;16.90;99.90;;;;;;5069108;28;20177;-65
2023/08/11 05:58:58;;;;;;;7.33;3.40;;;17.00;99.90;;;;;;5069743;28;20179;-66
2023/08/11 06:01:24;;;;;;;4.17;3.73;;;17.10;99.90;;;;;;5069630;28;20213;-65
2023/08/11 06:03:50;;;;;;;4.77;3.27;;;17.20;99.90;;;;;;5069683;28;20691;-65
2023/08/11 06:06:16;;;;;;;5.53;3.73;;;17.30;99.90;;;;;;5069720;28;20193;-65
2023/08/11 06:08:42;;;;;;;4.03;3.53;;;17.40;99.90;;;;;;5051854;28;20423;-65
2023/08/11 06:11:08;;;;;;;5.10;3.60;;;17.50;99.90;;;;;;5069461;28;20521;-64
2023/08/11 06:13:33;;;;;;;5.17;3.93;;;17.60;99.90;;;;;;5069272;28;20218;-66
2023/08/11 06:15:59;;;;;;;3.53;3.23;;;17.70;99.90;;;;;;5069309;28;20181;-65
2023/08/11 06:18:24;;;;;;;3.00;2.70;;;17.70;99.90;;;;;;5069123;28;20174;-65
2023/08/11 06:20:50;;;;;;;5.00;3.33;;;17.80;99.90;;;;;;5068905;28;20733;-65
2023/08/11 06:23:16;;;;;;;5.30;3.80;;;17.90;99.90;;;;;;5068958;28;20202;-65
2023/08/11 06:25:42;;;;;;;4.10;3.10;;;17.90;99.90;;;;;;5068741;28;20196;-65
2023/08/11 06:28:08;;;;;;;7.07;3.50;;;18.00;99.90;;;;;;5068463;28;20827;-65
2023/08/11 06:30:33;;;;;;;4.30;3.50;;;18.00;99.90;;;;;;5067231;28;20196;-65
2023/08/11 06:32:59;;;;;;;4.13;3.53;;;18.10;99.90;;;;;;5049212;28;20210;-66
2023/08/11 06:35:25;;;;;;;4.53;3.50;;;18.30;99.90;;;;;;5067571;28;20183;-65
2023/08/11 06:37:51;;;;;;;6.27;3.80;;;18.30;99.90;;;;;;5067532;28;20610;-65
2023/08/11 06:40:17;;;;;;;2.87;2.60;;;18.40;99.90;;;;;;5067596;28;20419;-65
2023/08/11 06:42:43;;;;;;;4.17;2.67;;;18.60;99.90;;;;;;5067563;28;20756;-64
2023/08/11 06:45:09;;;;;;;6.70;3.20;;;18.80;99.90;;;;;;5067408;28;20447;-65
2023/08/11 06:47:35;;;;;;;5.10;2.90;;;18.90;99.90;;;;;;5049436;28;20220;-64
2023/08/11 06:50:02;;;;;;;4.00;3.60;;;19.00;99.90;;;;;;5067430;28;20518;-65
2023/08/11 06:52:28;;;;;;;4.00;3.30;;;19.10;99.90;;;;;;5067468;28;20472;-66
2023/08/11 06:54:54;;;;;;;3.80;3.40;;;19.20;99.90;;;;;;5067511;28;20411;-65
2023/08/11 06:57:20;;;;;;;3.90;3.40;;;19.20;99.90;;;;;;5049505;28;20492;-66
2023/08/11 06:59:47;;;;;;;8.33;3.33;;;19.10;99.90;;;;;;5067262;28;20258;-66
2023/08/11 07:02:12;;;;;;;3.90;3.37;;;19.10;99.90;;;;;;5049060;28;20443;-67
2023/08/11 07:04:39;;;;;;;5.70;2.97;;;19.10;99.90;;;;;;5067177;28;20917;-66
2023/08/11 07:07:05;;;;;;;4.90;3.93;;;19.20;99.90;;;;;;5049013;28;20191;-66
2023/08/11 07:09:32;;;;;;;5.90;4.00;;;19.20;99.90;;;;;;5066838;28;20471;-66
2023/08/11 07:11:58;;;;;;;7.80;3.50;;;19.20;99.90;;;;;;5066643;28;20461;-66
2023/08/11 07:14:24;;;;;;;6.50;2.83;;;19.30;99.90;;;;;;5066727;28;20472;-66
2023/08/11 07:16:49;;;;;;;5.30;4.00;;;19.30;99.90;;;;;;5066576;28;20722;-65
2023/08/11 07:19:15;;;;;;;4.60;3.60;;;19.40;99.90;;;;;;5066603;28;20564;-65
2023/08/11 07:21:41;;;;;;;7.97;4.47;;;19.40;99.90;;;;;;5066569;28;20581;-66
2023/08/11 07:24:07;;;;;;;4.33;3.30;;;19.50;99.90;;;;;;5048583;28;20863;-75
2023/08/11 07:26:32;;;;;;;3.80;3.40;;;19.50;99.90;;;;;;5069577;28;20203;-76
2023/08/11 07:28:58;;;;;;;5.00;3.33;;;19.60;99.90;;;;;;5052095;28;20462;-76
2023/08/11 07:31:24;;;;;;;4.80;3.27;;;19.70;99.90;;;;;;5069998;28;20218;-76
2023/08/11 07:33:50;;;;;;;7.00;3.40;;;19.70;99.90;;;;;;5051934;28;20210;-75
2023/08/11 07:36:15;;;;;;;7.20;3.70;;;19.80;99.90;;;;;;5069827;28;20468;-75
2023/08/11 07:38:42;;;;;;;5.40;3.50;;;19.90;99.90;;;;;;5053684;28;20661;-77
2023/08/11 07:41:07;;;;;;;3.53;3.23;;;19.90;99.90;;;;;;5051601;28;20207;-75
2023/08/11 07:43:33;;;;;;;6.43;3.47;;;19.90;99.90;;;;;;5052034;28;20430;-76
2023/08/11 07:45:59;;;;;;;3.40;2.80;;;19.90;99.90;;;;;;5070138;28;20289;-77
2023/08/11 07:48:25;;;;;;;6.10;4.10;;;20.00;99.90;;;;;;5070085;28;20220;-76
2023/08/11 07:50:50;;;;;;;4.27;2.70;;;20.10;99.90;;;;;;5051657;28;20193;-77
2023/08/11 07:53:16;;;;;;;3.47;3.17;;;20.10;99.90;;;;;;5051820;28;20232;-76
2023/08/11 07:55:41;;;;;;;3.30;2.70;;;20.20;99.90;;;;;;5052256;28;20642;-76
2023/08/11 07:58:07;;;;;;;2.90;2.60;;;20.30;99.90;;;;;;5035490;28;20194;-77
2023/08/11 08:00:33;;;;;;;4.23;3.00;;;20.40;99.90;;;;;;5051914;28;20240;-77
2023/08/11 08:02:58;;;;;;;5.63;3.13;;;20.40;99.90;;;;;;5051689;28;20210;-76
2023/08/11 08:05:24;;;;;;;3.70;3.13;;;20.40;99.90;;;;;;5051739;28;20211;-75
2023/08/11 08:07:49;;;;;;;3.43;2.97;;;20.40;99.90;;;;;;5051776;28;20251;-76
2023/08/11 08:10:15;;;;;;;4.37;3.33;;;20.50;99.90;;;;;;5051733;28;20814;-76
2023/08/11 08:12:44;;;;;;;4.00;3.50;;;20.60;99.90;;;;;;5069329;28;20218;-76
2023/08/11 08:15:11;;;;;;;4.50;2.97;;;20.70;99.90;;;;;;5069326;28;20518;-76
2023/08/11 08:17:38;;;;;;;3.80;3.40;;;20.80;99.90;;;;;;5051567;28;20530;-75
2023/08/11 08:20:05;;;;;;;7.60;3.00;;;20.90;99.90;;;;;;5072644;28;20441;-77
2023/08/11 08:22:32;;;;;;;3.53;3.20;;;21.10;99.90;;;;;;5038256;28;20449;-76
2023/08/11 08:24:58;;;;;;;4.00;3.60;;;21.10;99.90;;;;;;5054058;28;20426;-76
2023/08/11 08:27:24;;;;;;;3.33;2.93;;;21.30;99.90;;;;;;5069475;28;20785;-76
2023/08/11 08:29:53;;;;;;;5.03;3.80;;;21.30;99.90;;;;;;5069170;28;20775;-76
2023/08/11 08:32:22;;;;;;;5.80;4.07;;;21.30;99.90;;;;;;5069102;28;20219;-75
2023/08/11 08:34:48;;;;;;;4.30;3.37;;;21.40;99.90;;;;;;5068887;28;20407;-75
2023/08/11 08:37:16;;;;;;;4.27;3.57;;;21.50;99.90;;;;;;5049823;28;20471;-74
2023/08/11 08:39:43;;;;;;;4.37;2.97;;;21.60;99.90;;;;;;5069277;28;20517;-74
2023/08/11 08:42:11;;;;;;;10.10;3.20;;;21.90;99.90;;;;;;5050873;28;20988;-76
2023/08/11 08:44:37;;;;;;;6.07;3.47;;;22.00;99.90;;;;;;5050866;28;20434;-75
2023/08/11 08:47:05;;;;;;;5.73;3.87;;;22.10;99.90;;;;;;5068621;28;20627;-76
2023/08/11 08:49:31;;;;;;;6.23;4.17;;;22.20;99.90;;;;;;5068816;28;20793;-75
2023/08/11 08:51:57;;;;;;;5.70;4.00;;;22.40;99.90;;;;;;5050457;28;20561;-75
2023/08/11 08:54:24;;;;;;;7.70;3.90;;;22.50;99.90;;;;;;5068716;28;20449;-76
2023/08/11 08:56:52;;;;;;;4.73;3.77;;;22.60;99.90;;;;;;5068907;28;20807;-75
2023/08/11 08:59:17;;;;;;;5.43;4.23;;;22.80;99.90;;;;;;5069160;28;20429;-76
2023/08/11 09:01:44;;;;;;;5.00;3.27;;;23.00;99.90;;;;;;5068531;28;20426;-76
2023/08/11 09:04:10;;;;;;;7.03;4.27;;;23.30;99.90;;;;;;5068605;28;20168;-76
2023/08/11 09:06:36;;;;;;;5.77;4.00;;;23.40;99.90;;;;;;5050515;28;20417;-76
2023/08/11 09:09:04;;;;;;;5.90;4.30;;;23.60;99.90;;;;;;5068523;28;20995;-76
2023/08/11 09:11:29;;;;;;;12.70;4.30;;;23.80;99.90;;;;;;5050710;28;20458;-76
2023/08/11 09:14:05;;;;;;;3.60;3.30;;;24.10;99.90;;;;;;5068207;28;20542;-76
2023/08/11 09:16:33;;;;;;;6.60;3.73;;;24.30;99.90;;;;;;5068169;28;20679;-75
2023/08/11 09:18:59;;;;;;;6.30;4.20;;;24.70;99.90;;;;;;5050585;28;20420;-76
2023/08/11 09:21:24;;;;;;;3.70;3.40;;;24.80;99.90;;;;;;5050280;28;20450;-76
2023/08/11 09:23:54;;;;;;;5.33;4.30;;;25.10;99.90;;;;;;5068230;28;20420;-76
2023/08/11 09:26:24;;;;;;;8.70;3.73;;;25.50;99.90;;;;;;5050508;28;20178;-76
2023/08/11 09:28:51;;;;;;;5.53;3.60;;;25.80;99.90;;;;;;5050396;28;20917;-75
2023/08/11 09:31:24;;;;;;;6.97;3.83;;;26.00;99.90;;;;;;5068036;28;20464;-76
2023/08/11 09:33:50;;;;;;;4.30;3.60;;;26.20;99.90;;;;;;5068109;28;20476;-75
2023/08/11 09:36:17;;;;;;;4.10;3.37;;;26.40;99.90;;;;;;5050170;28;20872;-76
2023/08/11 09:38:48;;;;;;;4.10;3.40;;;26.80;99.90;;;;;;5050590;28;20784;-75
2023/08/11 09:41:14;;;;;;;6.00;3.70;;;27.20;99.90;;;;;;5050684;28;20452;-73
2023/08/11 09:43:49;;;;;;;4.73;3.87;;;27.50;99.10;;;;;;5050176;28;20420;-77
2023/08/11 09:46:15;;;;;;;4.97;4.07;;;27.80;99.10;;;;;;5067915;28;20424;-76
2023/08/11 09:48:41;;;;;;;3.87;3.57;;;28.10;99.90;;;;;;5066691;28;20942;-74
2023/08/11 09:51:10;;;;;;;3.33;3.03;;;28.10;98.90;;;;;;5049254;28;20438;-76
2023/08/11 09:53:40;;;;;;;4.17;3.77;;;28.40;99.00;;;;;;5067286;28;20239;-74
2023/08/11 09:56:07;;;;;;;3.20;3.00;;;28.70;97.10;;;;;;5067930;28;20421;-74
2023/08/11 09:58:37;;;;;;;3.60;2.93;;;28.90;97.10;;;;;;5067571;28;20446;-75
2023/08/11 10:01:05;;;;;;;4.57;3.00;;;29.10;97.70;;;;;;5067863;28;20803;-77
2023/08/11 10:03:34;;;;;;;3.73;3.43;;;29.50;96.20;;;;;;5049691;28;20932;-75
2023/08/11 10:06:03;;;;;;;4.93;3.53;;;29.70;96.40;;;;;;5049638;28;20425;-75
2023/08/11 10:08:30;;;;;;;4.73;2.80;;;29.90;96.40;;;;;;5067657;28;20939;-75
2023/08/11 10:10:57;;;;;;;4.47;3.13;;;30.00;95.80;;;;;;5067851;28;20425;-74
2023/08/11 10:13:25;;;;;;;3.60;3.30;;;30.10;96.00;;;;;;5068050;28;21035;-75
2023/08/11 10:15:51;;;;;;;7.50;3.30;;;30.30;94.60;;;;;;5068162;28;20414;-75
2023/08/11 10:18:18;;;;;;;4.13;3.43;;;30.50;94.50;;;;;;5068510;28;20424;-71
2023/08/11 10:20:46;;;;;;;6.20;3.83;;;30.50;92.40;;;;;;5068607;28;20484;-76
2023/08/11 10:23:13;;;;;;;3.87;3.10;;;30.70;94.40;;;;;;5068746;28;20475;-75
2023/08/11 10:25:39;;;;;;;4.13;3.50;;;30.70;98.30;;;;;;5067629;28;20429;-74
2023/08/11 10:28:07;;;;;;;4.60;3.30;;;30.70;95.30;;;;;;5049505;28;20789;-74
2023/08/11 10:30:33;;;;;;;6.10;3.20;;;30.30;96.90;;;;;;5067380;28;20483;-72
2023/08/11 10:33:06;;;;;;;4.40;3.40;;;30.10;95.90;;;;;;5049114;28;20556;-73
2023/08/11 10:35:51;;;;;;;19.10;4.40;;;29.80;99.80;;;;;;5049268;28;20480;-74
2023/08/11 10:38:26;;;;;;;3.27;2.97;;;29.70;93.90;;;;;;5049665;28;20505;-72
2023/08/11 10:40:58;;;;;;;6.60;3.20;;;29.70;92.90;;;;;;5067342;28;20412;-70
2023/08/11 10:43:33;;;;;;;3.20;2.80;;;29.70;93.80;;;;;;5048600;28;20439;-70
2023/08/11 10:46:21;;;;;;;4.13;3.13;;;29.70;92.80;;;;;;5048801;28;20424;-70
2023/08/11 10:48:48;;;;;;;3.50;2.93;;;29.70;93.60;;;;;;5048783;28;20551;-70
2023/08/11 10:51:37;;;;;;;4.67;3.30;;;29.60;92.90;;;;;;5066809;28;20821;-69
2023/08/11 10:54:18;;;;;;;3.57;2.60;;;29.60;93.50;;;;;;5067035;28;20522;-71
2023/08/11 10:56:45;;;;;;;4.00;2.73;;;29.70;97.30;;;;;;5066975;28;20406;-70
2023/08/11 10:59:31;;;;;;;6.77;3.03;;;29.70;97.70;;;;;;5048882;28;20417;-70
2023/08/11 11:01:57;;;;;;;3.40;2.33;;;29.70;91.10;;;;;;5070537;28;20540;-69
2023/08/11 11:04:29;;;;;;;3.10;2.63;;;29.70;91.00;;;;;;5070620;28;20443;-70
2023/08/11 11:06:54;;;;;;;2.20;2.10;;;29.70;90.30;;;;;;5070703;28;20433;-67
2023/08/11 11:09:20;;;;;;;3.13;2.83;;;29.70;89.10;;;;;;5070718;28;20453;-69
2023/08/11 11:11:47;;;;;;;2.80;2.40;;;29.70;89.40;;;;;;5071170;28;20206;-70
2023/08/11 11:14:13;;;;;;;3.70;2.50;;;29.70;89.40;;;;;;5070869;28;20942;-69
2023/08/11 11:16:39;;;;;;;3.17;2.90;;;29.70;90.10;;;;;;5070917;28;20527;-70
2023/08/11 11:19:07;;;;;;;2.60;2.40;;;29.80;90.20;;;;;;5070663;28;20516;-70
2023/08/11 11:21:33;;;;;;;4.23;2.30;;;29.80;91.30;;;;;;5070447;28;20445;-70
2023/08/11 11:23:59;;;;;;;5.40;2.87;;;29.90;91.50;;;;;;5052177;28;20802;-71
2023/08/11 11:26:30;;;;;;;3.33;2.17;;;29.80;90.30;;;;;;5052135;28;20442;-68
2023/08/11 11:28:57;;;;;;;2.40;2.20;;;29.80;89.00;;;;;;5070056;28;20410;-70
2023/08/11 11:31:25;;;;;;;2.33;2.13;;;29.80;89.10;;;;;;5069328;28;20588;-71
2023/08/11 11:33:51;;;;;;;2.83;2.53;;;29.90;90.30;;;;;;5051694;28;21004;-71
2023/08/11 11:36:19;;;;;;;3.43;3.03;;;29.80;89.30;;;;;;5051461;28;20937;-71
2023/08/11 11:38:45;;;;;;;2.53;2.30;;;29.90;88.20;;;;;;5051348;28;20424;-70
2023/08/11 11:41:15;;;;;;;2.93;2.47;;;29.90;88.60;;;;;;5051323;28;20944;-71
2023/08/11 11:43:43;;;;;;;2.93;2.60;;;29.90;90.30;;;;;;5069634;28;20573;-73
2023/08/11 11:46:18;;;;;;;2.10;2.00;;;29.90;89.80;;;;;;5069459;28;20428;-73
2023/08/11 11:48:46;;;;;;;2.70;2.50;;;29.90;90.70;;;;;;5069210;28;20421;-71
2023/08/11 11:51:14;;;;;;;3.20;2.33;;;29.90;90.00;;;;;;5069032;28;20429;-72
2023/08/11 11:53:41;;;;;;;2.50;2.30;;;30.00;91.70;;;;;;5069069;28;20556;-71
2023/08/11 11:56:09;;;;;;;2.90;2.60;;;30.00;88.20;;;;;;5069216;28;20413;-71
2023/08/11 11:58:38;;;;;;;3.03;2.40;;;30.00;89.60;;;;;;5069734;28;20422;-71
2023/08/11 12:01:12;;;;;;;2.83;2.57;;;30.00;88.00;;;;;;5051376;28;20583;-71
2023/08/11 12:03:38;;;;;;;4.10;3.33;;;30.10;89.90;;;;;;5051385;28;20428;-71
2023/08/11 12:06:05;;;;;;;4.73;2.40;;;30.10;89.90;;;;;;5069987;28;20948;-71
2023/08/11 12:08:34;;;;;;;2.97;2.30;;;30.20;89.80;;;;;;5069467;28;20934;-71
2023/08/11 12:11:01;;;;;;;2.40;2.20;;;30.10;88.50;;;;;;5051043;28;20417;-71
2023/08/11 12:13:27;;;;;;;4.27;2.70;;;30.20;89.30;;;;;;5050920;28;20476;-70
2023/08/11 12:15:52;;;;;;;6.80;2.17;;;30.30;87.10;;;;;;5050872;28;20433;-71
2023/08/11 12:18:19;;;;;;;2.27;2.07;;;30.30;88.90;;;;;;5068833;28;20413;-72
2023/08/11 12:20:44;;;;;;;3.57;2.43;;;30.30;89.10;;;;;;5068651;28;20186;-71
2023/08/11 12:23:10;;;;;;;3.70;2.33;;;30.30;88.20;;;;;;5068643;28;20941;-70
2023/08/11 12:25:36;;;;;;;2.30;2.10;;;30.30;87.70;;;;;;5068596;28;20191;-72
2023/08/11 12:28:02;;;;;;;2.40;1.77;;;30.40;90.10;;;;;;5068534;28;20186;-71
2023/08/11 12:30:28;;;;;;;2.20;2.00;;;30.40;88.10;;;;;;5050056;28;20214;-70
2023/08/11 12:32:54;;;;;;;2.40;2.20;;;30.40;88.20;;;;;;5050116;28;21014;-71
2023/08/11 12:35:20;;;;;;;2.50;2.30;;;30.30;88.60;;;;;;5068323;28;20183;-70
2023/08/11 12:37:46;;;;;;;2.57;2.37;;;30.30;89.10;;;;;;5068292;28;20425;-72
2023/08/11 12:40:12;;;;;;;104.93;24.60;;;30.30;89.10;;;;;;5068199;28;20175;-69
2023/08/11 12:42:38;;;;;;;6.70;3.83;;;30.30;89.60;;;;;;5068145;28;20448;-71
2023/08/11 12:45:05;;;;;;;4.23;2.50;;;30.50;88.50;;;;;;5068219;28;20409;-72